Pittsburgh, PA (15227)

2:15 PM EDT on August 28, 2015 (GMT -0400)
Carrick/Pittsburgh | | Change Station
CLOSE
Current Station
Personal Weather Station
Location: Pittsburgh, PA
Elevation: 1086 ft
Nearby Weather Stations

Elev 1086 ft 40.39 °N, 79.99 °W | Updated 2 minutes ago

Partly Cloudy
Partly Cloudy
79.5 °F
Feels Like 80 °F
N
0.0
Wind Variable Wind from SE
Gusts 3.0 mph

Today
High -- | Low -- °F
--% Chance of Precip.
Yesterday
High -- | Low -- °F
Precip. -- in
6:43 AM 7:58 PM
Waxing Gibbous, 98% visible
Pressure 30.19 in
Visibility 10.0 miles
Clouds Scattered Clouds 5500 ft
Heat Index 80 °F
Dew Point 57 °F
Humidity 46%
Rainfall 0.00 in
Snow Depth Not available.
UV 6.0 out of 12
Pollen 9.80 out of 12
Air Quality Not available.
Flu Activity Not available.
METAR KAGC 281753Z VRB05KT 10SM SCT055 24/07 A3020 RMK AO2 SLP224 T02440072 10244 20144 58012
Pressure 30.19 in
Visibility 10.0 miles
Clouds Scattered Clouds 5500 ft
Heat Index 80 °F
Dew Point 57 °F
Humidity 46%
Rainfall 0.00 in
Snow Depth Not available.
UV 6.0 out of 12
Pollen 9.80 out of 12
Air Quality Not available.
Flu Activity Not available.
METAR KAGC 281753Z VRB05KT 10SM SCT055 24/07 A3020 RMK AO2 SLP224 T02440072 10244 20144 58012

10-Day Weather Forecast

×

Almanac

Astronomy

Aug. 28, 2015 Rise Set
Actual Time
Civil Twilight
Nautical Twilight
Astronomical Twilight
Moon
Length of Visible Light
Length of Day
Tomorrow will be .
, % of the Moon is Illuminated

Today's Extremes

State Highs State Lows

Community

WunderPhotos

Upload Photos

1,850,447 photos uploaded!

WunderBlogs® & News

Nearby

Air Quality

  Air Quality AQ Index Pollutant
Not available.

Snow Depth

Station Depth Elevation

Earthquake Activity

City Distance Mag. Time & Date
Minimum magnitude displayed is 2.5.

Coastal Water Temperatures

Place Temperature

Stations

Nearby Weather Stations

Station Location Temp. Windchill Dew Point Humidity Wind Precip. Elev Updated Type